sensor_id;sensor_type;location;lat;lon;timestamp;P1;durP1;ratioP1;P2;durP2;ratioP2
62457;SDS011;48509;52.122;5.250;2023-07-31T00:00:19;7.4;;;3.0;;
62457;SDS011;48509;52.122;5.250;2023-07-31T00:01:57;4.3;;;2.8;;
62457;SDS011;48509;52.122;5.250;2023-07-31T00:05:10;3.0;;;2.21;;
62457;SDS011;48509;52.122;5.250;2023-07-31T00:06:47;4.1;;;3.1;;
62457;SDS011;48509;52.122;5.250;2023-07-31T00:08:24;5.5;;;3.0;;
62457;SDS011;48509;52.122;5.250;2023-07-31T00:11:38;5.5;;;3.0;;
62457;SDS011;48509;52.122;5.250;2023-07-31T00:13:15;4.5;;;2.9;;
62457;SDS011;48509;52.122;5.250;2023-07-31T00:14:51;4.2;;;2.6;;
62457;SDS011;48509;52.122;5.250;2023-07-31T00:16:28;3.7;;;3.2;;
62457;SDS011;48509;52.122;5.250;2023-07-31T00:19:42;8.6;;;4.61;;
62457;SDS011;48509;52.122;5.250;2023-07-31T00:21:19;6.7;;;4.7;;
62457;SDS011;48509;52.122;5.250;2023-07-31T00:22:56;7.4;;;4.91;;
62457;SDS011;48509;52.122;5.250;2023-07-31T00:26:10;10.7;;;4.8;;
62457;SDS011;48509;52.122;5.250;2023-07-31T00:27:47;11.7;;;5.7;;
62457;SDS011;48509;52.122;5.250;2023-07-31T00:29:23;15.7;;;5.9;;
62457;SDS011;48509;52.122;5.250;2023-07-31T00:31:00;18.0;;;7.7;;
62457;SDS011;48509;52.122;5.250;2023-07-31T00:34:14;18.2;;;7.0;;
62457;SDS011;48509;52.122;5.250;2023-07-31T00:35:51;16.61;;;6.6;;
62457;SDS011;48509;52.122;5.250;2023-07-31T00:37:28;17.91;;;7.1;;
62457;SDS011;48509;52.122;5.250;2023-07-31T00:40:41;21.2;;;8.2;;
62457;SDS011;48509;52.122;5.250;2023-07-31T00:42:18;31.7;;;9.6;;
62457;SDS011;48509;52.122;5.250;2023-07-31T00:43:53;34.0;;;10.5;;
62457;SDS011;48509;52.122;5.250;2023-07-31T00:47:08;42.8;;;11.8;;
62457;SDS011;48509;52.122;5.250;2023-07-31T00:48:45;44.6;;;11.9;;
62457;SDS011;48509;52.122;5.250;2023-07-31T00:50:23;31.4;;;11.4;;
62457;SDS011;48509;52.122;5.250;2023-07-31T00:52:00;34.5;;;12.1;;
62457;SDS011;48509;52.122;5.250;2023-07-31T00:55:14;34.5;;;12.4;;
62457;SDS011;48509;52.122;5.250;2023-07-31T00:56:51;38.0;;;12.7;;
62457;SDS011;48509;52.122;5.250;2023-07-31T00:58:30;42.3;;;13.3;;
62457;SDS011;48509;52.122;5.250;2023-07-31T01:01:46;34.71;;;11.8;;
62457;SDS011;48509;52.122;5.250;2023-07-31T01:03:23;35.6;;;11.9;;
62457;SDS011;48509;52.122;5.250;2023-07-31T01:05:00;35.6;;;11.8;;
62457;SDS011;48509;52.122;5.250;2023-07-31T01:06:39;33.1;;;11.2;;
62457;SDS011;48509;52.122;5.250;2023-07-31T01:10:25;40.81;;;12.6;;
62457;SDS011;48509;52.122;5.250;2023-07-31T01:12:09;32.1;;;12.0;;
62457;SDS011;48509;52.122;5.250;2023-07-31T01:13:50;31.9;;;11.2;;
62457;SDS011;48509;52.122;5.250;2023-07-31T01:15:27;15.3;;;6.3;;
62457;SDS011;48509;52.122;5.250;2023-07-31T01:17:04;16.2;;;6.4;;
62457;SDS011;48509;52.122;5.250;2023-07-31T01:20:18;13.2;;;6.0;;
62457;SDS011;48509;52.122;5.250;2023-07-31T01:22:16;11.3;;;5.11;;
62457;SDS011;48509;52.122;5.250;2023-07-31T01:24:10;10.8;;;5.3;;
62457;SDS011;48509;52.122;5.250;2023-07-31T01:26:23;18.0;;;7.5;;
62457;SDS011;48509;52.122;5.250;2023-07-31T01:28:05;24.9;;;10.1;;
62457;SDS011;48509;52.122;5.250;2023-07-31T01:29:49;26.5;;;9.81;;
62457;SDS011;48509;52.122;5.250;2023-07-31T01:33:14;30.8;;;11.0;;
62457;SDS011;48509;52.122;5.250;2023-07-31T01:34:52;29.1;;;10.9;;
62457;SDS011;48509;52.122;5.250;2023-07-31T01:36:31;28.2;;;10.7;;
62457;SDS011;48509;52.122;5.250;2023-07-31T01:38:08;33.21;;;11.6;;
62457;SDS011;48509;52.122;5.250;2023-07-31T01:41:21;32.3;;;11.4;;
62457;SDS011;48509;52.122;5.250;2023-07-31T01:42:57;30.8;;;11.4;;
62457;SDS011;48509;52.122;5.250;2023-07-31T01:44:34;28.1;;;11.0;;
62457;SDS011;48509;52.122;5.250;2023-07-31T01:47:48;31.9;;;11.6;;
62457;SDS011;48509;52.122;5.250;2023-07-31T01:49:25;26.9;;;10.0;;
62457;SDS011;48509;52.122;5.250;2023-07-31T01:51:01;29.9;;;10.6;;
62457;SDS011;48509;52.122;5.250;2023-07-31T01:52:38;36.9;;;12.5;;
62457;SDS011;48509;52.122;5.250;2023-07-31T01:55:52;44.8;;;13.4;;
62457;SDS011;48509;52.122;5.250;2023-07-31T01:57:28;41.3;;;13.4;;
62457;SDS011;48509;52.122;5.250;2023-07-31T01:59:04;30.0;;;11.4;;
62457;SDS011;48509;52.122;5.250;2023-07-31T02:02:18;33.21;;;11.4;;
62457;SDS011;48509;52.122;5.250;2023-07-31T02:03:55;37.21;;;11.3;;
62457;SDS011;48509;52.122;5.250;2023-07-31T02:05:32;32.9;;;11.7;;
62457;SDS011;48509;52.122;5.250;2023-07-31T02:08:45;26.5;;;10.1;;
62457;SDS011;48509;52.122;5.250;2023-07-31T02:10:23;26.9;;;9.9;;
62457;SDS011;48509;52.122;5.250;2023-07-31T02:12:00;36.71;;;11.1;;
62457;SDS011;48509;52.122;5.250;2023-07-31T02:13:37;29.0;;;10.9;;
62457;SDS011;48509;52.122;5.250;2023-07-31T02:16:50;30.6;;;10.4;;
62457;SDS011;48509;52.122;5.250;2023-07-31T02:18:26;31.7;;;10.9;;
62457;SDS011;48509;52.122;5.250;2023-07-31T02:20:04;29.9;;;10.8;;
62457;SDS011;48509;52.122;5.250;2023-07-31T02:23:18;27.7;;;11.0;;
62457;SDS011;48509;52.122;5.250;2023-07-31T02:24:55;35.6;;;12.1;;
62457;SDS011;48509;52.122;5.250;2023-07-31T02:26:31;36.4;;;11.2;;
62457;SDS011;48509;52.122;5.250;2023-07-31T02:28:07;26.0;;;10.21;;
62457;SDS011;48509;52.122;5.250;2023-07-31T02:31:21;25.1;;;9.6;;
62457;SDS011;48509;52.122;5.250;2023-07-31T02:32:58;28.4;;;9.81;;
62457;SDS011;48509;52.122;5.250;2023-07-31T02:34:35;25.3;;;10.3;;
62457;SDS011;48509;52.122;5.250;2023-07-31T02:37:48;22.2;;;9.0;;
62457;SDS011;48509;52.122;5.250;2023-07-31T02:39:26;29.3;;;10.3;;
62457;SDS011;48509;52.122;5.250;2023-07-31T02:41:03;29.2;;;9.9;;
62457;SDS011;48509;52.122;5.250;2023-07-31T02:44:16;27.6;;;9.6;;
62457;SDS011;48509;52.122;5.250;2023-07-31T02:45:52;23.8;;;9.71;;
62457;SDS011;48509;52.122;5.250;2023-07-31T02:47:29;31.6;;;10.1;;
62457;SDS011;48509;52.122;5.250;2023-07-31T02:49:06;31.2;;;10.1;;
62457;SDS011;48509;52.122;5.250;2023-07-31T02:52:18;38.5;;;11.1;;
62457;SDS011;48509;52.122;5.250;2023-07-31T02:53:55;35.9;;;11.5;;
62457;SDS011;48509;52.122;5.250;2023-07-31T02:55:31;27.9;;;11.1;;
62457;SDS011;48509;52.122;5.250;2023-07-31T02:58:45;37.1;;;12.3;;
62457;SDS011;48509;52.122;5.250;2023-07-31T03:00:21;25.7;;;10.6;;
62457;SDS011;48509;52.122;5.250;2023-07-31T03:05:12;37.6;;;12.0;;
62457;SDS011;48509;52.122;5.250;2023-07-31T03:06:49;38.9;;;11.7;;
62457;SDS011;48509;52.122;5.250;2023-07-31T03:08:26;33.21;;;11.8;;
62457;SDS011;48509;52.122;5.250;2023-07-31T03:10:03;26.6;;;10.8;;
62457;SDS011;48509;52.122;5.250;2023-07-31T03:13:17;34.4;;;11.1;;
62457;SDS011;48509;52.122;5.250;2023-07-31T03:14:54;38.21;;;12.4;;
62457;SDS011;48509;52.122;5.250;2023-07-31T03:16:31;33.0;;;11.3;;
62457;SDS011;48509;52.122;5.250;2023-07-31T03:19:44;34.1;;;11.8;;
62457;SDS011;48509;52.122;5.250;2023-07-31T03:21:21;30.4;;;10.9;;
62457;SDS011;48509;52.122;5.250;2023-07-31T03:22:58;38.71;;;13.4;;
62457;SDS011;48509;52.122;5.250;2023-07-31T03:24:34;36.81;;;12.1;;
62457;SDS011;48509;52.122;5.250;2023-07-31T03:27:48;29.5;;;11.0;;
62457;SDS011;48509;52.122;5.250;2023-07-31T03:29:25;43.2;;;13.1;;
62457;SDS011;48509;52.122;5.250;2023-07-31T03:31:02;45.2;;;13.4;;
62457;SDS011;48509;52.122;5.250;2023-07-31T03:34:15;31.4;;;12.3;;
62457;SDS011;48509;52.122;5.250;2023-07-31T03:35:51;36.6;;;13.5;;
62457;SDS011;48509;52.122;5.250;2023-07-31T03:37:29;38.5;;;12.8;;
62457;SDS011;48509;52.122;5.250;2023-07-31T03:40:42;26.1;;;11.4;;
62457;SDS011;48509;52.122;5.250;2023-07-31T03:42:19;37.6;;;11.9;;
62457;SDS011;48509;52.122;5.250;2023-07-31T03:43:56;31.7;;;11.9;;
62457;SDS011;48509;52.122;5.250;2023-07-31T03:45:33;31.2;;;12.0;;
62457;SDS011;48509;52.122;5.250;2023-07-31T03:48:47;33.9;;;12.6;;
62457;SDS011;48509;52.122;5.250;2023-07-31T03:50:24;37.31;;;12.9;;
62457;SDS011;48509;52.122;5.250;2023-07-31T03:52:00;28.8;;;11.9;;
62457;SDS011;48509;52.122;5.250;2023-07-31T03:55:14;30.7;;;12.0;;
62457;SDS011;48509;52.122;5.250;2023-07-31T03:56:51;30.9;;;11.7;;
62457;SDS011;48509;52.122;5.250;2023-07-31T03:58:27;34.71;;;12.0;;
62457;SDS011;48509;52.122;5.250;2023-07-31T04:01:43;29.4;;;11.7;;
62457;SDS011;48509;52.122;5.250;2023-07-31T04:03:19;29.4;;;11.7;;
62457;SDS011;48509;52.122;5.250;2023-07-31T04:04:56;28.5;;;10.6;;
62457;SDS011;48509;52.122;5.250;2023-07-31T04:06:32;28.5;;;10.6;;
62457;SDS011;48509;52.122;5.250;2023-07-31T04:09:46;34.6;;;12.7;;
62457;SDS011;48509;52.122;5.250;2023-07-31T04:11:23;35.31;;;13.4;;
62457;SDS011;48509;52.122;5.250;2023-07-31T04:13:00;31.2;;;12.2;;
62457;SDS011;48509;52.122;5.250;2023-07-31T04:16:13;30.0;;;11.7;;
62457;SDS011;48509;52.122;5.250;2023-07-31T04:17:50;31.3;;;12.7;;
62457;SDS011;48509;52.122;5.250;2023-07-31T04:19:26;38.71;;;13.0;;
62457;SDS011;48509;52.122;5.250;2023-07-31T04:22:40;33.8;;;12.2;;
62457;SDS011;48509;52.122;5.250;2023-07-31T04:24:17;37.9;;;14.3;;
62457;SDS011;48509;52.122;5.250;2023-07-31T04:25:54;32.6;;;12.6;;
62457;SDS011;48509;52.122;5.250;2023-07-31T04:27:31;32.6;;;12.6;;
62457;SDS011;48509;52.122;5.250;2023-07-31T04:30:45;29.3;;;12.7;;
62457;SDS011;48509;52.122;5.250;2023-07-31T04:32:23;27.2;;;11.3;;
62457;SDS011;48509;52.122;5.250;2023-07-31T04:33:59;29.7;;;12.3;;
62457;SDS011;48509;52.122;5.250;2023-07-31T04:37:12;33.1;;;13.1;;
62457;SDS011;48509;52.122;5.250;2023-07-31T04:38:49;27.9;;;11.2;;
62457;SDS011;48509;52.122;5.250;2023-07-31T04:40:27;28.3;;;11.8;;
62457;SDS011;48509;52.122;5.250;2023-07-31T04:42:04;29.3;;;11.9;;
62457;SDS011;48509;52.122;5.250;2023-07-31T04:45:17;23.4;;;11.2;;
62457;SDS011;48509;52.122;5.250;2023-07-31T04:46:54;32.0;;;12.2;;
62457;SDS011;48509;52.122;5.250;2023-07-31T04:48:31;26.8;;;12.3;;
62457;SDS011;48509;52.122;5.250;2023-07-31T04:51:45;30.1;;;12.4;;
62457;SDS011;48509;52.122;5.250;2023-07-31T04:53:21;29.6;;;12.2;;
62457;SDS011;48509;52.122;5.250;2023-07-31T04:54:58;27.4;;;11.5;;
62457;SDS011;48509;52.122;5.250;2023-07-31T04:58:12;27.1;;;11.4;;
62457;SDS011;48509;52.122;5.250;2023-07-31T04:59:49;28.4;;;10.8;;
62457;SDS011;48509;52.122;5.250;2023-07-31T05:01:25;18.5;;;9.9;;
62457;SDS011;48509;52.122;5.250;2023-07-31T05:03:01;30.5;;;11.9;;
62457;SDS011;48509;52.122;5.250;2023-07-31T05:06:15;28.2;;;12.0;;
62457;SDS011;48509;52.122;5.250;2023-07-31T05:07:53;27.9;;;10.6;;
62457;SDS011;48509;52.122;5.250;2023-07-31T05:09:30;24.8;;;10.9;;
62457;SDS011;48509;52.122;5.250;2023-07-31T05:12:44;28.4;;;11.0;;
62457;SDS011;48509;52.122;5.250;2023-07-31T05:14:21;25.6;;;10.7;;
62457;SDS011;48509;52.122;5.250;2023-07-31T05:15:58;21.3;;;10.6;;
62457;SDS011;48509;52.122;5.250;2023-07-31T05:17:34;21.3;;;10.6;;
62457;SDS011;48509;52.122;5.250;2023-07-31T05:20:49;21.3;;;9.31;;
62457;SDS011;48509;52.122;5.250;2023-07-31T05:22:26;21.7;;;9.81;;
62457;SDS011;48509;52.122;5.250;2023-07-31T05:24:03;18.2;;;8.31;;
62457;SDS011;48509;52.122;5.250;2023-07-31T05:27:18;24.1;;;9.21;;
62457;SDS011;48509;52.122;5.250;2023-07-31T05:28:55;17.41;;;8.4;;
62457;SDS011;48509;52.122;5.250;2023-07-31T05:30:31;17.8;;;7.3;;
62457;SDS011;48509;52.122;5.250;2023-07-31T05:33:45;18.5;;;7.9;;
62457;SDS011;48509;52.122;5.250;2023-07-31T05:35:21;18.2;;;7.8;;
62457;SDS011;48509;52.122;5.250;2023-07-31T05:36:57;15.0;;;7.2;;
62457;SDS011;48509;52.122;5.250;2023-07-31T05:38:34;12.6;;;6.9;;
62457;SDS011;48509;52.122;5.250;2023-07-31T05:41:49;11.6;;;6.2;;
62457;SDS011;48509;52.122;5.250;2023-07-31T05:43:26;15.4;;;7.1;;
62457;SDS011;48509;52.122;5.250;2023-07-31T05:45:03;11.8;;;6.1;;
62457;SDS011;48509;52.122;5.250;2023-07-31T05:48:18;9.4;;;5.7;;
62457;SDS011;48509;52.122;5.250;2023-07-31T05:49:54;15.1;;;7.6;;
62457;SDS011;48509;52.122;5.250;2023-07-31T05:51:31;12.3;;;6.6;;
62457;SDS011;48509;52.122;5.250;2023-07-31T05:53:08;16.0;;;7.9;;
62457;SDS011;48509;52.122;5.250;2023-07-31T05:56:22;15.2;;;7.5;;
62457;SDS011;48509;52.122;5.250;2023-07-31T05:57:59;16.4;;;7.8;;
62457;SDS011;48509;52.122;5.250;2023-07-31T05:59:36;11.1;;;6.9;;
62457;SDS011;48509;52.122;5.250;2023-07-31T06:02:49;15.7;;;7.7;;
62457;SDS011;48509;52.122;5.250;2023-07-31T06:04:26;16.11;;;7.8;;
62457;SDS011;48509;52.122;5.250;2023-07-31T06:06:02;15.7;;;7.5;;
62457;SDS011;48509;52.122;5.250;2023-07-31T06:09:17;13.3;;;7.4;;
62457;SDS011;48509;52.122;5.250;2023-07-31T06:10:53;18.41;;;8.2;;
62457;SDS011;48509;52.122;5.250;2023-07-31T06:12:29;16.11;;;8.31;;
62457;SDS011;48509;52.122;5.250;2023-07-31T06:14:06;15.3;;;7.2;;
62457;SDS011;48509;52.122;5.250;2023-07-31T06:17:19;15.4;;;7.4;;
62457;SDS011;48509;52.122;5.250;2023-07-31T06:18:56;12.9;;;7.3;;
62457;SDS011;48509;52.122;5.250;2023-07-31T06:20:34;16.5;;;8.2;;
62457;SDS011;48509;52.122;5.250;2023-07-31T06:23:47;15.0;;;7.1;;
62457;SDS011;48509;52.122;5.250;2023-07-31T06:25:24;17.3;;;7.5;;
62457;SDS011;48509;52.122;5.250;2023-07-31T06:27:01;16.5;;;7.1;;
62457;SDS011;48509;52.122;5.250;2023-07-31T06:30:15;15.7;;;7.2;;
62457;SDS011;48509;52.122;5.250;2023-07-31T06:31:52;19.7;;;7.7;;
62457;SDS011;48509;52.122;5.250;2023-07-31T06:33:29;12.9;;;7.2;;
62457;SDS011;48509;52.122;5.250;2023-07-31T06:35:06;15.0;;;7.3;;
62457;SDS011;48509;52.122;5.250;2023-07-31T06:38:21;15.2;;;8.2;;
62457;SDS011;48509;52.122;5.250;2023-07-31T06:40:00;17.61;;;7.6;;
62457;SDS011;48509;52.122;5.250;2023-07-31T06:41:38;12.1;;;6.7;;
62457;SDS011;48509;52.122;5.250;2023-07-31T06:44:52;11.5;;;6.4;;
62457;SDS011;48509;52.122;5.250;2023-07-31T06:46:29;9.5;;;6.1;;
62457;SDS011;48509;52.122;5.250;2023-07-31T06:48:05;14.3;;;6.9;;
62457;SDS011;48509;52.122;5.250;2023-07-31T06:49:42;10.4;;;5.5;;
62457;SDS011;48509;52.122;5.250;2023-07-31T06:52:55;11.1;;;6.2;;
62457;SDS011;48509;52.122;5.250;2023-07-31T06:54:32;10.4;;;5.7;;
62457;SDS011;48509;52.122;5.250;2023-07-31T06:56:08;9.9;;;5.3;;
62457;SDS011;48509;52.122;5.250;2023-07-31T06:59:23;11.9;;;5.4;;
62457;SDS011;48509;52.122;5.250;2023-07-31T07:01:00;12.6;;;5.5;;
62457;SDS011;48509;52.122;5.250;2023-07-31T07:02:37;14.3;;;5.4;;
62457;SDS011;48509;52.122;5.250;2023-07-31T07:04:14;11.5;;;5.6;;
62457;SDS011;48509;52.122;5.250;2023-07-31T07:07:28;9.6;;;5.0;;
62457;SDS011;48509;52.122;5.250;2023-07-31T07:09:05;11.8;;;5.8;;
62457;SDS011;48509;52.122;5.250;2023-07-31T07:10:42;10.4;;;4.91;;
62457;SDS011;48509;52.122;5.250;2023-07-31T07:13:55;9.6;;;4.7;;
62457;SDS011;48509;52.122;5.250;2023-07-31T07:15:32;8.4;;;5.5;;
62457;SDS011;48509;52.122;5.250;2023-07-31T07:17:09;9.4;;;5.11;;
62457;SDS011;48509;52.122;5.250;2023-07-31T07:20:23;8.71;;;4.41;;
62457;SDS011;48509;52.122;5.250;2023-07-31T07:22:00;9.71;;;5.0;;
62457;SDS011;48509;52.122;5.250;2023-07-31T07:23:38;8.31;;;5.2;;
62457;SDS011;48509;52.122;5.250;2023-07-31T07:25:14;9.0;;;4.61;;
62457;SDS011;48509;52.122;5.250;2023-07-31T07:28:28;8.0;;;5.0;;
62457;SDS011;48509;52.122;5.250;2023-07-31T07:30:05;10.3;;;5.2;;
62457;SDS011;48509;52.122;5.250;2023-07-31T07:31:42;8.6;;;5.11;;
62457;SDS011;48509;52.122;5.250;2023-07-31T07:34:57;6.7;;;4.8;;
62457;SDS011;48509;52.122;5.250;2023-07-31T07:36:33;8.9;;;4.8;;
62457;SDS011;48509;52.122;5.250;2023-07-31T07:38:13;6.5;;;4.41;;
62457;SDS011;48509;52.122;5.250;2023-07-31T07:39:49;9.0;;;4.8;;
62457;SDS011;48509;52.122;5.250;2023-07-31T07:43:02;7.9;;;4.41;;
62457;SDS011;48509;52.122;5.250;2023-07-31T07:44:39;6.4;;;4.2;;
62457;SDS011;48509;52.122;5.250;2023-07-31T07:46:16;8.5;;;4.8;;
62457;SDS011;48509;52.122;5.250;2023-07-31T07:49:30;9.31;;;3.8;;
62457;SDS011;48509;52.122;5.250;2023-07-31T07:51:08;7.0;;;4.2;;
62457;SDS011;48509;52.122;5.250;2023-07-31T07:52:45;6.6;;;3.7;;
62457;SDS011;48509;52.122;5.250;2023-07-31T07:55:59;7.7;;;3.6;;
62457;SDS011;48509;52.122;5.250;2023-07-31T07:57:36;6.5;;;4.1;;
62457;SDS011;48509;52.122;5.250;2023-07-31T07:59:12;7.2;;;3.4;;
62457;SDS011;48509;52.122;5.250;2023-07-31T08:04:03;6.2;;;3.4;;
62457;SDS011;48509;52.122;5.250;2023-07-31T08:05:40;6.2;;;4.0;;
62457;SDS011;48509;52.122;5.250;2023-07-31T08:07:16;5.7;;;3.2;;
62457;SDS011;48509;52.122;5.250;2023-07-31T08:10:31;5.2;;;3.7;;
62457;SDS011;48509;52.122;5.250;2023-07-31T08:12:08;4.2;;;3.2;;
62457;SDS011;48509;52.122;5.250;2023-07-31T08:13:45;7.9;;;2.9;;
62457;SDS011;48509;52.122;5.250;2023-07-31T08:16:59;7.0;;;3.3;;
62457;SDS011;48509;52.122;5.250;2023-07-31T08:18:37;7.5;;;3.7;;
62457;SDS011;48509;52.122;5.250;2023-07-31T08:20:14;5.2;;;3.2;;
62457;SDS011;48509;52.122;5.250;2023-07-31T08:21:51;5.7;;;3.3;;
62457;SDS011;48509;52.122;5.250;2023-07-31T08:25:05;3.1;;;2.8;;
62457;SDS011;48509;52.122;5.250;2023-07-31T08:26:43;4.2;;;3.2;;
62457;SDS011;48509;52.122;5.250;2023-07-31T08:28:20;3.7;;;2.5;;
62457;SDS011;48509;52.122;5.250;2023-07-31T08:31:34;3.4;;;2.8;;
62457;SDS011;48509;52.122;5.250;2023-07-31T08:33:11;3.5;;;2.9;;
62457;SDS011;48509;52.122;5.250;2023-07-31T08:34:48;6.3;;;2.7;;
62457;SDS011;48509;52.122;5.250;2023-07-31T08:36:25;4.5;;;2.9;;
62457;SDS011;48509;52.122;5.250;2023-07-31T08:39:39;2.5;;;2.31;;
62457;SDS011;48509;52.122;5.250;2023-07-31T08:42:54;2.5;;;2.31;;
62457;SDS011;48509;52.122;5.250;2023-07-31T08:46:10;5.0;;;2.5;;
62457;SDS011;48509;52.122;5.250;2023-07-31T08:47:48;2.1;;;1.8;;
62457;SDS011;48509;52.122;5.250;2023-07-31T08:49:26;2.7;;;2.5;;
62457;SDS011;48509;52.122;5.250;2023-07-31T08:51:06;2.31;;;2.0;;
62457;SDS011;48509;52.122;5.250;2023-07-31T08:54:23;3.4;;;2.4;;
62457;SDS011;48509;52.122;5.250;2023-07-31T08:56:00;2.9;;;2.21;;
62457;SDS011;48509;52.122;5.250;2023-07-31T08:57:39;2.8;;;2.5;;
62457;SDS011;48509;52.122;5.250;2023-07-31T08:59:18;2.1;;;1.9;;
62457;SDS011;48509;52.122;5.250;2023-07-31T09:02:41;3.0;;;2.4;;
62457;SDS011;48509;52.122;5.250;2023-07-31T09:04:27;3.3;;;2.5;;
62457;SDS011;48509;52.122;5.250;2023-07-31T09:06:05;6.2;;;2.4;;
62457;SDS011;48509;52.122;5.250;2023-07-31T09:07:43;2.21;;;2.0;;
62457;SDS011;48509;52.122;5.250;2023-07-31T09:10:59;4.3;;;2.21;;
62457;SDS011;48509;52.122;5.250;2023-07-31T09:12:37;3.2;;;1.8;;
62457;SDS011;48509;52.122;5.250;2023-07-31T09:14:15;2.9;;;2.1;;
62457;SDS011;48509;52.122;5.250;2023-07-31T09:17:32;2.8;;;2.4;;
62457;SDS011;48509;52.122;5.250;2023-07-31T09:19:10;2.21;;;2.0;;
62457;SDS011;48509;52.122;5.250;2023-07-31T09:20:47;2.21;;;2.0;;
62457;SDS011;48509;52.122;5.250;2023-07-31T09:22:36;2.6;;;2.4;;
62457;SDS011;48509;52.122;5.250;2023-07-31T09:26:01;2.5;;;2.0;;
62457;SDS011;48509;52.122;5.250;2023-07-31T09:27:45;2.8;;;2.21;;
62457;SDS011;48509;52.122;5.250;2023-07-31T09:29:23;2.31;;;2.21;;
62457;SDS011;48509;52.122;5.250;2023-07-31T09:31:01;2.7;;;2.31;;
62457;SDS011;48509;52.122;5.250;2023-07-31T09:34:14;2.4;;;2.21;;
62457;SDS011;48509;52.122;5.250;2023-07-31T09:35:51;3.2;;;2.9;;
62457;SDS011;48509;52.122;5.250;2023-07-31T09:37:29;3.1;;;2.7;;
62457;SDS011;48509;52.122;5.250;2023-07-31T09:39:06;2.9;;;2.1;;
62457;SDS011;48509;52.122;5.250;2023-07-31T09:42:25;2.7;;;2.5;;
62457;SDS011;48509;52.122;5.250;2023-07-31T09:44:02;3.0;;;2.6;;
62457;SDS011;48509;52.122;5.250;2023-07-31T09:45:40;3.2;;;2.9;;
62457;SDS011;48509;52.122;5.250;2023-07-31T09:49:09;2.4;;;2.31;;
62457;SDS011;48509;52.122;5.250;2023-07-31T09:50:47;2.5;;;2.21;;
62457;SDS011;48509;52.122;5.250;2023-07-31T09:52:25;4.1;;;2.9;;
62457;SDS011;48509;52.122;5.250;2023-07-31T09:54:02;4.0;;;2.9;;
62457;SDS011;48509;52.122;5.250;2023-07-31T09:57:18;3.0;;;2.8;;
62457;SDS011;48509;52.122;5.250;2023-07-31T09:58:58;4.2;;;2.9;;
62457;SDS011;48509;52.122;5.250;2023-07-31T10:00:35;3.2;;;2.9;;
62457;SDS011;48509;52.122;5.250;2023-07-31T10:02:14;4.0;;;3.6;;
62457;SDS011;48509;52.122;5.250;2023-07-31T10:05:35;4.2;;;2.5;;
62457;SDS011;48509;52.122;5.250;2023-07-31T10:07:15;3.9;;;3.1;;
62457;SDS011;48509;52.122;5.250;2023-07-31T10:08:54;2.4;;;2.31;;
62457;SDS011;48509;52.122;5.250;2023-07-31T10:10:32;4.0;;;3.2;;
62457;SDS011;48509;52.122;5.250;2023-07-31T10:13:54;3.6;;;2.8;;
62457;SDS011;48509;52.122;5.250;2023-07-31T10:15:31;3.9;;;3.5;;
62457;SDS011;48509;52.122;5.250;2023-07-31T10:17:09;3.8;;;3.5;;
62457;SDS011;48509;52.122;5.250;2023-07-31T10:18:48;4.41;;;4.0;;
62457;SDS011;48509;52.122;5.250;2023-07-31T10:22:05;4.2;;;3.9;;
62457;SDS011;48509;52.122;5.250;2023-07-31T10:23:43;4.2;;;3.8;;
62457;SDS011;48509;52.122;5.250;2023-07-31T10:25:20;10.21;;;4.3;;
62457;SDS011;48509;52.122;5.250;2023-07-31T10:28:37;6.9;;;5.4;;
62457;SDS011;48509;52.122;5.250;2023-07-31T10:30:15;7.3;;;5.6;;
62457;SDS011;48509;52.122;5.250;2023-07-31T10:31:55;6.6;;;5.9;;
62457;SDS011;48509;52.122;5.250;2023-07-31T10:33:33;5.6;;;5.11;;
62457;SDS011;48509;52.122;5.250;2023-07-31T10:36:48;8.71;;;6.8;;
62457;SDS011;48509;52.122;5.250;2023-07-31T10:38:25;7.6;;;6.8;;
62457;SDS011;48509;52.122;5.250;2023-07-31T10:40:02;10.9;;;6.1;;
62457;SDS011;48509;52.122;5.250;2023-07-31T10:43:24;10.4;;;7.9;;
62457;SDS011;48509;52.122;5.250;2023-07-31T10:45:03;6.2;;;5.6;;
62457;SDS011;48509;52.122;5.250;2023-07-31T10:46:42;9.0;;;5.9;;
62457;SDS011;48509;52.122;5.250;2023-07-31T10:48:21;9.5;;;7.3;;
62457;SDS011;48509;52.122;5.250;2023-07-31T10:52:10;6.3;;;5.7;;
62457;SDS011;48509;52.122;5.250;2023-07-31T10:53:48;8.5;;;6.2;;
62457;SDS011;48509;52.122;5.250;2023-07-31T10:55:26;7.9;;;6.5;;
62457;SDS011;48509;52.122;5.250;2023-07-31T10:57:06;7.2;;;5.5;;
62457;SDS011;48509;52.122;5.250;2023-07-31T10:59:00;6.4;;;5.6;;
62457;SDS011;48509;52.122;5.250;2023-07-31T11:02:24;8.0;;;5.8;;
62457;SDS011;48509;52.122;5.250;2023-07-31T11:04:01;6.4;;;5.3;;
62457;SDS011;48509;52.122;5.250;2023-07-31T11:05:49;5.9;;;5.11;;
62457;SDS011;48509;52.122;5.250;2023-07-31T11:07:26;6.5;;;5.2;;
62457;SDS011;48509;52.122;5.250;2023-07-31T11:09:23;6.7;;;5.4;;
62457;SDS011;48509;52.122;5.250;2023-07-31T11:12:44;4.5;;;4.1;;
62457;SDS011;48509;52.122;5.250;2023-07-31T11:14:21;3.9;;;3.5;;
62457;SDS011;48509;52.122;5.250;2023-07-31T11:15:58;3.7;;;3.4;;
62457;SDS011;48509;52.122;5.250;2023-07-31T11:17:38;3.7;;;3.2;;
62457;SDS011;48509;52.122;5.250;2023-07-31T11:20:57;3.5;;;3.0;;
62457;SDS011;48509;52.122;5.250;2023-07-31T11:22:34;3.5;;;2.6;;
62457;SDS011;48509;52.122;5.250;2023-07-31T11:24:12;4.0;;;3.0;;
62457;SDS011;48509;52.122;5.250;2023-07-31T11:25:49;3.9;;;2.9;;
62457;SDS011;48509;52.122;5.250;2023-07-31T11:29:10;3.3;;;3.0;;
62457;SDS011;48509;52.122;5.250;2023-07-31T11:30:46;4.61;;;3.1;;
62457;SDS011;48509;52.122;5.250;2023-07-31T11:32:23;5.0;;;3.3;;
62457;SDS011;48509;52.122;5.250;2023-07-31T11:35:44;7.0;;;3.4;;
62457;SDS011;48509;52.122;5.250;2023-07-31T11:37:22;4.3;;;3.3;;
62457;SDS011;48509;52.122;5.250;2023-07-31T11:39:04;6.7;;;3.7;;
62457;SDS011;48509;52.122;5.250;2023-07-31T11:40:41;6.2;;;3.8;;
62457;SDS011;48509;52.122;5.250;2023-07-31T11:43:59;5.0;;;3.5;;
62457;SDS011;48509;52.122;5.250;2023-07-31T11:45:36;3.9;;;3.5;;
62457;SDS011;48509;52.122;5.250;2023-07-31T11:47:15;6.3;;;3.8;;
62457;SDS011;48509;52.122;5.250;2023-07-31T11:48:55;4.5;;;3.2;;
62457;SDS011;48509;52.122;5.250;2023-07-31T11:52:13;5.7;;;4.41;;
62457;SDS011;48509;52.122;5.250;2023-07-31T11:53:51;6.9;;;5.11;;
62457;SDS011;48509;52.122;5.250;2023-07-31T11:55:31;8.81;;;6.4;;
62457;SDS011;48509;52.122;5.250;2023-07-31T11:57:07;7.6;;;5.9;;
62457;SDS011;48509;52.122;5.250;2023-07-31T12:00:22;7.5;;;6.4;;
62457;SDS011;48509;52.122;5.250;2023-07-31T12:02:00;7.0;;;5.8;;
62457;SDS011;48509;52.122;5.250;2023-07-31T12:03:37;7.7;;;6.9;;
62457;SDS011;48509;52.122;5.250;2023-07-31T12:06:52;8.31;;;6.9;;
62457;SDS011;48509;52.122;5.250;2023-07-31T12:08:29;9.71;;;7.3;;
62457;SDS011;48509;52.122;5.250;2023-07-31T12:10:07;7.4;;;5.9;;
62457;SDS011;48509;52.122;5.250;2023-07-31T12:13:22;8.6;;;7.0;;
62457;SDS011;48509;52.122;5.250;2023-07-31T12:15:00;10.6;;;7.3;;
62457;SDS011;48509;52.122;5.250;2023-07-31T12:16:37;10.6;;;7.3;;
62457;SDS011;48509;52.122;5.250;2023-07-31T12:18:15;9.81;;;6.9;;
62457;SDS011;48509;52.122;5.250;2023-07-31T12:21:32;7.8;;;6.2;;
62457;SDS011;48509;52.122;5.250;2023-07-31T12:23:13;6.2;;;5.6;;
62457;SDS011;48509;52.122;5.250;2023-07-31T12:24:51;6.7;;;5.5;;
62457;SDS011;48509;52.122;5.250;2023-07-31T12:26:33;6.6;;;5.3;;
62457;SDS011;48509;52.122;5.250;2023-07-31T12:29:47;8.1;;;5.9;;
62457;SDS011;48509;52.122;5.250;2023-07-31T12:31:23;5.5;;;5.0;;
62457;SDS011;48509;52.122;5.250;2023-07-31T12:33:04;5.9;;;5.11;;
62457;SDS011;48509;52.122;5.250;2023-07-31T12:36:20;7.4;;;5.8;;
62457;SDS011;48509;52.122;5.250;2023-07-31T12:38:00;5.8;;;4.8;;
62457;SDS011;48509;52.122;5.250;2023-07-31T12:39:37;6.0;;;5.0;;
62457;SDS011;48509;52.122;5.250;2023-07-31T12:41:14;7.1;;;5.7;;
62457;SDS011;48509;52.122;5.250;2023-07-31T12:44:27;5.7;;;5.2;;
62457;SDS011;48509;52.122;5.250;2023-07-31T12:46:05;5.0;;;4.5;;
62457;SDS011;48509;52.122;5.250;2023-07-31T12:47:43;6.3;;;5.7;;
62457;SDS011;48509;52.122;5.250;2023-07-31T12:50:57;6.6;;;4.7;;
62457;SDS011;48509;52.122;5.250;2023-07-31T12:52:34;7.5;;;5.6;;